sensor_id;sensor_type;location;lat;lon;timestamp;P1;durP1;ratioP1;P2;durP2;ratioP2
82805;SDS011;72558;51.000;-3.112;2023-11-19T00:00:34;40.5;;;5.8;;
82805;SDS011;72558;51.000;-3.112;2023-11-19T00:03:33;36.0;;;5.0;;
82805;SDS011;72558;51.000;-3.112;2023-11-19T00:06:34;37.2;;;5.1;;
82805;SDS011;72558;51.000;-3.112;2023-11-19T00:09:34;41.1;;;5.5;;
82805;SDS011;72558;51.000;-3.112;2023-11-19T00:12:34;35.8;;;4.6;;
82805;SDS011;72558;51.000;-3.112;2023-11-19T00:15:34;38.2;;;5.5;;
82805;SDS011;72558;51.000;-3.112;2023-11-19T00:18:33;37.6;;;5.0;;
82805;SDS011;72558;51.000;-3.112;2023-11-19T00:21:34;28.1;;;4.6;;
82805;SDS011;72558;51.000;-3.112;2023-11-19T00:24:33;35.6;;;5.0;;
82805;SDS011;72558;51.000;-3.112;2023-11-19T00:27:34;35.3;;;5.2;;
82805;SDS011;72558;51.000;-3.112;2023-11-19T00:30:34;33.8;;;4.9;;
82805;SDS011;72558;51.000;-3.112;2023-11-19T00:33:33;37.3;;;5.9;;
82805;SDS011;72558;51.000;-3.112;2023-11-19T00:36:34;33.8;;;5.2;;
82805;SDS011;72558;51.000;-3.112;2023-11-19T00:39:33;35.0;;;4.6;;
82805;SDS011;72558;51.000;-3.112;2023-11-19T00:42:34;35.0;;;5.2;;
82805;SDS011;72558;51.000;-3.112;2023-11-19T00:45:33;31.2;;;4.7;;
82805;SDS011;72558;51.000;-3.112;2023-11-19T00:48:34;34.2;;;5.0;;
82805;SDS011;72558;51.000;-3.112;2023-11-19T00:51:33;32.9;;;4.7;;
82805;SDS011;72558;51.000;-3.112;2023-11-19T00:54:34;31.2;;;4.4;;
82805;SDS011;72558;51.000;-3.112;2023-11-19T00:57:33;34.1;;;4.6;;
82805;SDS011;72558;51.000;-3.112;2023-11-19T01:00:34;26.6;;;4.0;;
82805;SDS011;72558;51.000;-3.112;2023-11-19T01:03:34;32.0;;;4.9;;
82805;SDS011;72558;51.000;-3.112;2023-11-19T01:06:34;32.1;;;4.1;;
82805;SDS011;72558;51.000;-3.112;2023-11-19T01:09:33;32.0;;;4.2;;
82805;SDS011;72558;51.000;-3.112;2023-11-19T01:12:34;30.1;;;4.6;;
82805;SDS011;72558;51.000;-3.112;2023-11-19T01:15:34;29.9;;;4.4;;
82805;SDS011;72558;51.000;-3.112;2023-11-19T01:18:34;28.9;;;4.1;;
82805;SDS011;72558;51.000;-3.112;2023-11-19T01:21:33;27.1;;;4.6;;
82805;SDS011;72558;51.000;-3.112;2023-11-19T01:24:34;26.4;;;3.8;;
82805;SDS011;72558;51.000;-3.112;2023-11-19T01:27:34;30.4;;;5.0;;
82805;SDS011;72558;51.000;-3.112;2023-11-19T01:30:34;34.2;;;5.2;;
82805;SDS011;72558;51.000;-3.112;2023-11-19T01:33:34;30.7;;;4.1;;
82805;SDS011;72558;51.000;-3.112;2023-11-19T01:36:33;29.5;;;4.5;;
82805;SDS011;72558;51.000;-3.112;2023-11-19T01:39:34;33.8;;;4.7;;
82805;SDS011;72558;51.000;-3.112;2023-11-19T01:42:34;27.5;;;4.2;;
82805;SDS011;72558;51.000;-3.112;2023-11-19T01:45:34;31.6;;;4.8;;
82805;SDS011;72558;51.000;-3.112;2023-11-19T01:48:33;29.2;;;4.4;;
82805;SDS011;72558;51.000;-3.112;2023-11-19T01:51:33;32.6;;;4.2;;
82805;SDS011;72558;51.000;-3.112;2023-11-19T01:54:34;32.4;;;4.6;;
82805;SDS011;72558;51.000;-3.112;2023-11-19T01:57:34;30.3;;;4.2;;
82805;SDS011;72558;51.000;-3.112;2023-11-19T02:00:34;24.9;;;3.7;;
82805;SDS011;72558;51.000;-3.112;2023-11-19T02:03:34;27.4;;;4.0;;
82805;SDS011;72558;51.000;-3.112;2023-11-19T02:06:34;32.0;;;4.9;;
82805;SDS011;72558;51.000;-3.112;2023-11-19T02:09:34;28.7;;;4.0;;
82805;SDS011;72558;51.000;-3.112;2023-11-19T02:12:34;32.5;;;4.7;;
82805;SDS011;72558;51.000;-3.112;2023-11-19T02:15:33;29.4;;;3.9;;
82805;SDS011;72558;51.000;-3.112;2023-11-19T02:18:34;30.7;;;3.8;;
82805;SDS011;72558;51.000;-3.112;2023-11-19T02:21:34;29.4;;;4.6;;
82805;SDS011;72558;51.000;-3.112;2023-11-19T02:24:34;27.2;;;3.8;;
82805;SDS011;72558;51.000;-3.112;2023-11-19T02:27:33;27.9;;;4.3;;
82805;SDS011;72558;51.000;-3.112;2023-11-19T02:30:34;27.7;;;4.5;;
82805;SDS011;72558;51.000;-3.112;2023-11-19T02:33:34;31.8;;;4.6;;
82805;SDS011;72558;51.000;-3.112;2023-11-19T02:36:34;27.2;;;3.9;;
82805;SDS011;72558;51.000;-3.112;2023-11-19T02:39:34;32.1;;;4.4;;
82805;SDS011;72558;51.000;-3.112;2023-11-19T02:42:33;25.5;;;4.0;;
82805;SDS011;72558;51.000;-3.112;2023-11-19T02:45:34;29.5;;;4.6;;
82805;SDS011;72558;51.000;-3.112;2023-11-19T02:48:33;33.2;;;5.2;;
82805;SDS011;72558;51.000;-3.112;2023-11-19T02:51:33;32.9;;;5.0;;
82805;SDS011;72558;51.000;-3.112;2023-11-19T02:54:34;25.4;;;4.7;;
82805;SDS011;72558;51.000;-3.112;2023-11-19T02:57:33;25.4;;;4.1;;
82805;SDS011;72558;51.000;-3.112;2023-11-19T03:00:33;37.0;;;4.8;;
82805;SDS011;72558;51.000;-3.112;2023-11-19T03:03:34;29.5;;;4.1;;
82805;SDS011;72558;51.000;-3.112;2023-11-19T03:06:34;28.1;;;3.6;;
82805;SDS011;72558;51.000;-3.112;2023-11-19T03:09:34;29.8;;;4.5;;
82805;SDS011;72558;51.000;-3.112;2023-11-19T03:12:33;30.7;;;4.0;;
82805;SDS011;72558;51.000;-3.112;2023-11-19T03:15:34;30.8;;;4.2;;
82805;SDS011;72558;51.000;-3.112;2023-11-19T03:18:33;31.8;;;4.6;;
82805;SDS011;72558;51.000;-3.112;2023-11-19T03:21:34;30.5;;;4.4;;
82805;SDS011;72558;51.000;-3.112;2023-11-19T03:24:34;30.1;;;4.1;;
82805;SDS011;72558;51.000;-3.112;2023-11-19T03:27:33;28.8;;;4.0;;
82805;SDS011;72558;51.000;-3.112;2023-11-19T03:30:34;28.3;;;4.1;;
82805;SDS011;72558;51.000;-3.112;2023-11-19T03:33:34;36.1;;;4.5;;
82805;SDS011;72558;51.000;-3.112;2023-11-19T03:36:33;31.4;;;4.9;;
82805;SDS011;72558;51.000;-3.112;2023-11-19T03:39:34;23.7;;;3.4;;
82805;SDS011;72558;51.000;-3.112;2023-11-19T03:42:33;28.1;;;4.2;;
82805;SDS011;72558;51.000;-3.112;2023-11-19T03:45:34;29.0;;;4.3;;
82805;SDS011;72558;51.000;-3.112;2023-11-19T03:48:33;28.5;;;4.5;;
82805;SDS011;72558;51.000;-3.112;2023-11-19T03:51:34;31.9;;;4.5;;
82805;SDS011;72558;51.000;-3.112;2023-11-19T03:54:34;29.2;;;4.2;;
82805;SDS011;72558;51.000;-3.112;2023-11-19T03:57:34;25.3;;;4.0;;
82805;SDS011;72558;51.000;-3.112;2023-11-19T04:00:33;28.4;;;4.2;;
82805;SDS011;72558;51.000;-3.112;2023-11-19T04:03:34;24.5;;;3.4;;
82805;SDS011;72558;51.000;-3.112;2023-11-19T04:06:34;23.7;;;3.7;;
82805;SDS011;72558;51.000;-3.112;2023-11-19T04:09:34;28.5;;;4.1;;
82805;SDS011;72558;51.000;-3.112;2023-11-19T04:12:34;27.6;;;4.3;;
82805;SDS011;72558;51.000;-3.112;2023-11-19T04:15:34;32.0;;;4.2;;
82805;SDS011;72558;51.000;-3.112;2023-11-19T04:18:34;27.2;;;4.1;;
82805;SDS011;72558;51.000;-3.112;2023-11-19T04:21:34;29.2;;;3.6;;
82805;SDS011;72558;51.000;-3.112;2023-11-19T04:24:33;27.0;;;3.8;;
82805;SDS011;72558;51.000;-3.112;2023-11-19T04:27:34;26.6;;;4.4;;
82805;SDS011;72558;51.000;-3.112;2023-11-19T04:30:33;27.9;;;3.8;;
82805;SDS011;72558;51.000;-3.112;2023-11-19T04:33:34;28.8;;;4.4;;
82805;SDS011;72558;51.000;-3.112;2023-11-19T04:36:33;26.4;;;4.2;;
82805;SDS011;72558;51.000;-3.112;2023-11-19T04:39:34;23.9;;;3.9;;
82805;SDS011;72558;51.000;-3.112;2023-11-19T04:42:33;27.1;;;3.8;;
82805;SDS011;72558;51.000;-3.112;2023-11-19T04:45:34;28.6;;;3.8;;
82805;SDS011;72558;51.000;-3.112;2023-11-19T04:48:33;26.2;;;4.3;;
82805;SDS011;72558;51.000;-3.112;2023-11-19T04:51:34;24.3;;;3.6;;
82805;SDS011;72558;51.000;-3.112;2023-11-19T04:54:33;26.4;;;3.6;;
82805;SDS011;72558;51.000;-3.112;2023-11-19T04:57:34;27.0;;;4.3;;
82805;SDS011;72558;51.000;-3.112;2023-11-19T05:00:33;26.5;;;4.1;;
82805;SDS011;72558;51.000;-3.112;2023-11-19T05:03:34;25.6;;;3.6;;
82805;SDS011;72558;51.000;-3.112;2023-11-19T05:06:33;27.0;;;4.0;;
82805;SDS011;72558;51.000;-3.112;2023-11-19T05:09:34;26.7;;;4.1;;
82805;SDS011;72558;51.000;-3.112;2023-11-19T05:12:33;26.5;;;4.4;;
82805;SDS011;72558;51.000;-3.112;2023-11-19T05:15:34;26.6;;;3.7;;
82805;SDS011;72558;51.000;-3.112;2023-11-19T05:18:33;25.6;;;4.3;;
82805;SDS011;72558;51.000;-3.112;2023-11-19T05:21:34;28.4;;;4.1;;
82805;SDS011;72558;51.000;-3.112;2023-11-19T05:24:33;28.1;;;4.5;;
82805;SDS011;72558;51.000;-3.112;2023-11-19T05:27:34;32.6;;;5.0;;
82805;SDS011;72558;51.000;-3.112;2023-11-19T05:30:34;29.8;;;3.9;;
82805;SDS011;72558;51.000;-3.112;2023-11-19T05:33:34;23.7;;;4.0;;
82805;SDS011;72558;51.000;-3.112;2023-11-19T05:36:34;25.8;;;4.3;;
82805;SDS011;72558;51.000;-3.112;2023-11-19T05:39:34;32.0;;;5.4;;
82805;SDS011;72558;51.000;-3.112;2023-11-19T05:42:34;31.4;;;4.1;;
82805;SDS011;72558;51.000;-3.112;2023-11-19T05:45:34;24.1;;;3.3;;
82805;SDS011;72558;51.000;-3.112;2023-11-19T05:48:34;23.5;;;3.7;;
82805;SDS011;72558;51.000;-3.112;2023-11-19T05:51:34;25.2;;;3.7;;
82805;SDS011;72558;51.000;-3.112;2023-11-19T05:54:34;27.4;;;4.6;;
82805;SDS011;72558;51.000;-3.112;2023-11-19T05:57:33;25.2;;;3.3;;
82805;SDS011;72558;51.000;-3.112;2023-11-19T06:00:34;24.1;;;3.8;;
82805;SDS011;72558;51.000;-3.112;2023-11-19T06:03:34;24.4;;;3.9;;
82805;SDS011;72558;51.000;-3.112;2023-11-19T06:06:34;23.5;;;2.9;;
82805;SDS011;72558;51.000;-3.112;2023-11-19T06:09:34;24.8;;;3.3;;
82805;SDS011;72558;51.000;-3.112;2023-11-19T06:12:33;26.1;;;3.8;;
82805;SDS011;72558;51.000;-3.112;2023-11-19T06:15:34;25.5;;;3.6;;
82805;SDS011;72558;51.000;-3.112;2023-11-19T06:18:33;31.7;;;4.4;;
82805;SDS011;72558;51.000;-3.112;2023-11-19T06:21:34;29.4;;;4.2;;
82805;SDS011;72558;51.000;-3.112;2023-11-19T06:24:34;26.9;;;4.3;;
82805;SDS011;72558;51.000;-3.112;2023-11-19T06:27:34;32.6;;;4.6;;
82805;SDS011;72558;51.000;-3.112;2023-11-19T06:30:34;28.7;;;4.2;;
82805;SDS011;72558;51.000;-3.112;2023-11-19T06:33:34;24.2;;;3.9;;
82805;SDS011;72558;51.000;-3.112;2023-11-19T06:36:33;32.8;;;4.9;;
82805;SDS011;72558;51.000;-3.112;2023-11-19T06:39:34;29.8;;;4.3;;
82805;SDS011;72558;51.000;-3.112;2023-11-19T06:42:33;22.9;;;3.5;;
82805;SDS011;72558;51.000;-3.112;2023-11-19T06:45:34;25.1;;;3.4;;
82805;SDS011;72558;51.000;-3.112;2023-11-19T06:48:34;20.2;;;3.1;;
82805;SDS011;72558;51.000;-3.112;2023-11-19T06:51:33;29.2;;;3.8;;
82805;SDS011;72558;51.000;-3.112;2023-11-19T06:54:34;25.0;;;3.5;;
82805;SDS011;72558;51.000;-3.112;2023-11-19T06:57:33;30.3;;;4.3;;
82805;SDS011;72558;51.000;-3.112;2023-11-19T07:00:34;30.1;;;3.9;;
82805;SDS011;72558;51.000;-3.112;2023-11-19T07:03:33;35.2;;;5.1;;
82805;SDS011;72558;51.000;-3.112;2023-11-19T07:06:34;31.3;;;3.9;;
82805;SDS011;72558;51.000;-3.112;2023-11-19T07:09:34;28.7;;;3.9;;
82805;SDS011;72558;51.000;-3.112;2023-11-19T07:12:34;29.8;;;3.6;;
82805;SDS011;72558;51.000;-3.112;2023-11-19T07:15:34;25.7;;;3.5;;
82805;SDS011;72558;51.000;-3.112;2023-11-19T07:18:33;27.1;;;3.8;;
82805;SDS011;72558;51.000;-3.112;2023-11-19T07:21:34;29.4;;;4.2;;
82805;SDS011;72558;51.000;-3.112;2023-11-19T07:24:34;32.8;;;4.1;;
82805;SDS011;72558;51.000;-3.112;2023-11-19T07:27:34;31.5;;;4.7;;
82805;SDS011;72558;51.000;-3.112;2023-11-19T07:30:34;30.3;;;4.3;;
82805;SDS011;72558;51.000;-3.112;2023-11-19T07:33:34;28.3;;;4.3;;
82805;SDS011;72558;51.000;-3.112;2023-11-19T07:36:34;30.8;;;4.6;;
82805;SDS011;72558;51.000;-3.112;2023-11-19T07:39:34;30.0;;;4.6;;
82805;SDS011;72558;51.000;-3.112;2023-11-19T07:42:33;30.2;;;3.9;;
82805;SDS011;72558;51.000;-3.112;2023-11-19T07:45:34;30.8;;;4.1;;
82805;SDS011;72558;51.000;-3.112;2023-11-19T07:48:33;26.8;;;3.9;;
82805;SDS011;72558;51.000;-3.112;2023-11-19T07:51:34;25.7;;;3.8;;
82805;SDS011;72558;51.000;-3.112;2023-11-19T07:54:33;31.0;;;4.0;;
82805;SDS011;72558;51.000;-3.112;2023-11-19T07:57:34;31.3;;;4.7;;
82805;SDS011;72558;51.000;-3.112;2023-11-19T08:00:33;27.0;;;4.2;;
82805;SDS011;72558;51.000;-3.112;2023-11-19T08:03:33;25.9;;;4.2;;
82805;SDS011;72558;51.000;-3.112;2023-11-19T08:06:34;25.5;;;4.3;;
82805;SDS011;72558;51.000;-3.112;2023-11-19T08:09:34;30.8;;;3.7;;
82805;SDS011;72558;51.000;-3.112;2023-11-19T08:12:33;26.9;;;3.7;;
82805;SDS011;72558;51.000;-3.112;2023-11-19T08:15:34;29.4;;;4.3;;
82805;SDS011;72558;51.000;-3.112;2023-11-19T08:18:34;24.5;;;3.6;;
82805;SDS011;72558;51.000;-3.112;2023-11-19T08:21:34;26.4;;;4.3;;
82805;SDS011;72558;51.000;-3.112;2023-11-19T08:24:33;23.5;;;3.3;;
82805;SDS011;72558;51.000;-3.112;2023-11-19T08:27:34;25.3;;;3.7;;
82805;SDS011;72558;51.000;-3.112;2023-11-19T08:30:33;22.2;;;3.6;;
82805;SDS011;72558;51.000;-3.112;2023-11-19T08:33:34;25.2;;;4.0;;
82805;SDS011;72558;51.000;-3.112;2023-11-19T08:36:33;27.5;;;3.7;;
82805;SDS011;72558;51.000;-3.112;2023-11-19T08:39:34;25.1;;;4.0;;
82805;SDS011;72558;51.000;-3.112;2023-11-19T08:42:34;29.1;;;3.6;;
82805;SDS011;72558;51.000;-3.112;2023-11-19T08:45:34;28.4;;;4.2;;
82805;SDS011;72558;51.000;-3.112;2023-11-19T08:48:33;26.1;;;4.3;;
82805;SDS011;72558;51.000;-3.112;2023-11-19T08:51:34;24.6;;;3.6;;
82805;SDS011;72558;51.000;-3.112;2023-11-19T08:54:34;27.4;;;3.9;;
82805;SDS011;72558;51.000;-3.112;2023-11-19T08:57:34;19.2;;;3.7;;
82805;SDS011;72558;51.000;-3.112;2023-11-19T09:00:34;19.9;;;3.3;;
82805;SDS011;72558;51.000;-3.112;2023-11-19T09:03:33;21.8;;;3.7;;
82805;SDS011;72558;51.000;-3.112;2023-11-19T09:06:34;25.1;;;3.9;;
82805;SDS011;72558;51.000;-3.112;2023-11-19T09:09:33;22.4;;;4.0;;
82805;SDS011;72558;51.000;-3.112;2023-11-19T09:12:34;28.1;;;4.2;;
82805;SDS011;72558;51.000;-3.112;2023-11-19T09:15:33;25.5;;;3.9;;
82805;SDS011;72558;51.000;-3.112;2023-11-19T09:18:34;23.0;;;3.6;;
82805;SDS011;72558;51.000;-3.112;2023-11-19T09:21:34;18.0;;;2.9;;
82805;SDS011;72558;51.000;-3.112;2023-11-19T09:24:33;17.6;;;2.8;;
82805;SDS011;72558;51.000;-3.112;2023-11-19T09:27:34;18.4;;;2.8;;
82805;SDS011;72558;51.000;-3.112;2023-11-19T09:30:33;13.7;;;2.0;;
82805;SDS011;72558;51.000;-3.112;2023-11-19T09:33:34;18.4;;;2.7;;
82805;SDS011;72558;51.000;-3.112;2023-11-19T09:36:34;20.6;;;3.0;;
82805;SDS011;72558;51.000;-3.112;2023-11-19T09:39:34;23.0;;;3.0;;
82805;SDS011;72558;51.000;-3.112;2023-11-19T09:42:34;23.0;;;2.9;;
82805;SDS011;72558;51.000;-3.112;2023-11-19T09:45:34;25.0;;;3.2;;
82805;SDS011;72558;51.000;-3.112;2023-11-19T09:48:33;20.5;;;3.0;;
82805;SDS011;72558;51.000;-3.112;2023-11-19T09:51:34;19.3;;;2.9;;
82805;SDS011;72558;51.000;-3.112;2023-11-19T09:54:33;17.4;;;2.8;;
82805;SDS011;72558;51.000;-3.112;2023-11-19T09:57:34;16.6;;;2.2;;
82805;SDS011;72558;51.000;-3.112;2023-11-19T10:00:34;16.3;;;2.2;;
82805;SDS011;72558;51.000;-3.112;2023-11-19T10:03:33;17.2;;;2.2;;
82805;SDS011;72558;51.000;-3.112;2023-11-19T10:06:34;21.9;;;3.3;;
82805;SDS011;72558;51.000;-3.112;2023-11-19T10:09:34;18.2;;;2.8;;
82805;SDS011;72558;51.000;-3.112;2023-11-19T10:12:34;16.4;;;2.8;;
82805;SDS011;72558;51.000;-3.112;2023-11-19T10:15:33;16.5;;;2.6;;
82805;SDS011;72558;51.000;-3.112;2023-11-19T10:18:34;19.6;;;2.5;;
82805;SDS011;72558;51.000;-3.112;2023-11-19T10:21:33;17.6;;;2.3;;
82805;SDS011;72558;51.000;-3.112;2023-11-19T10:24:34;14.9;;;2.4;;
82805;SDS011;72558;51.000;-3.112;2023-11-19T10:27:33;15.8;;;2.9;;
82805;SDS011;72558;51.000;-3.112;2023-11-19T10:30:34;18.3;;;2.7;;
82805;SDS011;72558;51.000;-3.112;2023-11-19T10:33:33;15.7;;;2.5;;
82805;SDS011;72558;51.000;-3.112;2023-11-19T10:36:34;17.6;;;2.8;;
82805;SDS011;72558;51.000;-3.112;2023-11-19T10:39:34;19.8;;;2.4;;
82805;SDS011;72558;51.000;-3.112;2023-11-19T10:42:33;15.0;;;2.6;;
82805;SDS011;72558;51.000;-3.112;2023-11-19T10:45:34;13.2;;;2.1;;
82805;SDS011;72558;51.000;-3.112;2023-11-19T10:48:33;15.4;;;2.1;;
82805;SDS011;72558;51.000;-3.112;2023-11-19T10:51:34;15.2;;;2.0;;
82805;SDS011;72558;51.000;-3.112;2023-11-19T10:54:34;12.8;;;2.0;;
82805;SDS011;72558;51.000;-3.112;2023-11-19T10:57:33;14.8;;;2.0;;
82805;SDS011;72558;51.000;-3.112;2023-11-19T11:00:34;11.0;;;1.7;;
82805;SDS011;72558;51.000;-3.112;2023-11-19T11:03:33;14.4;;;2.2;;
82805;SDS011;72558;51.000;-3.112;2023-11-19T11:06:34;9.9;;;1.9;;
82805;SDS011;72558;51.000;-3.112;2023-11-19T11:09:33;9.9;;;1.4;;
82805;SDS011;72558;51.000;-3.112;2023-11-19T11:12:34;11.3;;;1.9;;
82805;SDS011;72558;51.000;-3.112;2023-11-19T11:15:34;14.8;;;2.1;;
82805;SDS011;72558;51.000;-3.112;2023-11-19T11:18:33;11.3;;;1.7;;
82805;SDS011;72558;51.000;-3.112;2023-11-19T11:21:34;8.3;;;1.3;;
82805;SDS011;72558;51.000;-3.112;2023-11-19T11:24:34;9.7;;;1.5;;
82805;SDS011;72558;51.000;-3.112;2023-11-19T11:27:34;9.8;;;1.2;;
82805;SDS011;72558;51.000;-3.112;2023-11-19T11:30:34;12.4;;;1.7;;
82805;SDS011;72558;51.000;-3.112;2023-11-19T11:33:34;8.6;;;1.0;;
82805;SDS011;72558;51.000;-3.112;2023-11-19T11:36:33;9.8;;;1.2;;
82805;SDS011;72558;51.000;-3.112;2023-11-19T11:39:34;8.1;;;1.2;;
82805;SDS011;72558;51.000;-3.112;2023-11-19T11:42:34;7.9;;;1.1;;
82805;SDS011;72558;51.000;-3.112;2023-11-19T11:45:34;8.9;;;1.1;;
82805;SDS011;72558;51.000;-3.112;2023-11-19T11:48:34;7.1;;;0.9;;
82805;SDS011;72558;51.000;-3.112;2023-11-19T11:51:34;8.3;;;1.2;;
82805;SDS011;72558;51.000;-3.112;2023-11-19T11:54:34;8.8;;;1.2;;
82805;SDS011;72558;51.000;-3.112;2023-11-19T11:57:34;5.4;;;0.9;;
82805;SDS011;72558;51.000;-3.112;2023-11-19T12:00:34;5.8;;;0.7;;
82805;SDS011;72558;51.000;-3.112;2023-11-19T12:03:34;6.7;;;1.0;;
82805;SDS011;72558;51.000;-3.112;2023-11-19T12:06:34;6.3;;;0.9;;
82805;SDS011;72558;51.000;-3.112;2023-11-19T12:09:33;7.6;;;1.0;;
82805;SDS011;72558;51.000;-3.112;2023-11-19T12:12:34;5.7;;;0.9;;
82805;SDS011;72558;51.000;-3.112;2023-11-19T12:15:34;6.5;;;1.2;;
82805;SDS011;72558;51.000;-3.112;2023-11-19T12:18:34;8.6;;;1.0;;
82805;SDS011;72558;51.000;-3.112;2023-11-19T12:21:34;7.6;;;0.9;;
82805;SDS011;72558;51.000;-3.112;2023-11-19T12:24:34;8.2;;;1.4;;
82805;SDS011;72558;51.000;-3.112;2023-11-19T12:27:34;7.0;;;1.0;;
82805;SDS011;72558;51.000;-3.112;2023-11-19T12:30:34;6.2;;;0.8;;
82805;SDS011;72558;51.000;-3.112;2023-11-19T12:33:34;6.4;;;0.7;;
82805;SDS011;72558;51.000;-3.112;2023-11-19T12:36:33;8.1;;;1.3;;
82805;SDS011;72558;51.000;-3.112;2023-11-19T12:39:34;6.8;;;1.1;;
82805;SDS011;72558;51.000;-3.112;2023-11-19T12:42:34;7.7;;;1.3;;
82805;SDS011;72558;51.000;-3.112;2023-11-19T12:45:33;7.5;;;1.0;;
82805;SDS011;72558;51.000;-3.112;2023-11-19T12:48:33;7.2;;;0.9;;
82805;SDS011;72558;51.000;-3.112;2023-11-19T12:51:34;8.1;;;1.0;;
82805;SDS011;72558;51.000;-3.112;2023-11-19T12:54:34;5.0;;;0.7;;
82805;SDS011;72558;51.000;-3.112;2023-11-19T12:57:34;5.9;;;1.0;;
82805;SDS011;72558;51.000;-3.112;2023-11-19T13:00:34;8.4;;;1.1;;
82805;SDS011;72558;51.000;-3.112;2023-11-19T13:03:34;8.6;;;1.2;;
82805;SDS011;72558;51.000;-3.112;2023-11-19T13:06:33;7.2;;;1.1;;
82805;SDS011;72558;51.000;-3.112;2023-11-19T13:09:34;7.5;;;1.0;;
82805;SDS011;72558;51.000;-3.112;2023-11-19T13:12:33;7.9;;;1.1;;
82805;SDS011;72558;51.000;-3.112;2023-11-19T13:15:34;7.8;;;1.4;;
82805;SDS011;72558;51.000;-3.112;2023-11-19T13:18:34;10.5;;;1.4;;
82805;SDS011;72558;51.000;-3.112;2023-11-19T13:21:34;12.5;;;2.1;;
82805;SDS011;72558;51.000;-3.112;2023-11-19T13:24:34;14.1;;;1.8;;
82805;SDS011;72558;51.000;-3.112;2023-11-19T13:27:34;10.7;;;1.7;;
82805;SDS011;72558;51.000;-3.112;2023-11-19T13:30:34;11.5;;;2.1;;
82805;SDS011;72558;51.000;-3.112;2023-11-19T13:33:34;12.9;;;2.2;;
82805;SDS011;72558;51.000;-3.112;2023-11-19T13:36:34;13.1;;;2.3;;
82805;SDS011;72558;51.000;-3.112;2023-11-19T13:39:34;13.7;;;2.2;;
82805;SDS011;72558;51.000;-3.112;2023-11-19T13:42:34;17.3;;;2.5;;
82805;SDS011;72558;51.000;-3.112;2023-11-19T13:45:33;19.2;;;2.8;;
82805;SDS011;72558;51.000;-3.112;2023-11-19T13:48:34;13.5;;;2.4;;
82805;SDS011;72558;51.000;-3.112;2023-11-19T13:51:33;15.8;;;2.8;;
82805;SDS011;72558;51.000;-3.112;2023-11-19T13:54:34;18.3;;;2.6;;
82805;SDS011;72558;51.000;-3.112;2023-11-19T13:57:33;17.4;;;2.3;;
82805;SDS011;72558;51.000;-3.112;2023-11-19T14:00:34;14.0;;;2.1;;
82805;SDS011;72558;51.000;-3.112;2023-11-19T14:03:33;14.7;;;2.0;;
82805;SDS011;72558;51.000;-3.112;2023-11-19T14:06:34;15.0;;;2.1;;
82805;SDS011;72558;51.000;-3.112;2023-11-19T14:09:33;16.9;;;2.3;;
82805;SDS011;72558;51.000;-3.112;2023-11-19T14:12:34;13.1;;;2.4;;
82805;SDS011;72558;51.000;-3.112;2023-11-19T14:15:34;15.6;;;2.2;;
82805;SDS011;72558;51.000;-3.112;2023-11-19T14:18:34;12.8;;;1.7;;
82805;SDS011;72558;51.000;-3.112;2023-11-19T14:21:34;14.8;;;2.2;;
82805;SDS011;72558;51.000;-3.112;2023-11-19T14:24:34;13.0;;;1.6;;
82805;SDS011;72558;51.000;-3.112;2023-11-19T14:27:34;15.0;;;2.2;;
82805;SDS011;72558;51.000;-3.112;2023-11-19T14:30:34;17.3;;;2.1;;
82805;SDS011;72558;51.000;-3.112;2023-11-19T14:33:34;18.9;;;2.8;;
82805;SDS011;72558;51.000;-3.112;2023-11-19T14:36:34;18.0;;;2.7;;
82805;SDS011;72558;51.000;-3.112;2023-11-19T14:39:34;15.1;;;2.1;;
82805;SDS011;72558;51.000;-3.112;2023-11-19T14:42:34;19.3;;;2.5;;
82805;SDS011;72558;51.000;-3.112;2023-11-19T14:45:35;19.4;;;3.1;;
82805;SDS011;72558;51.000;-3.112;2023-11-19T14:48:33;18.0;;;2.6;;
82805;SDS011;72558;51.000;-3.112;2023-11-19T14:51:34;19.7;;;2.6;;
82805;SDS011;72558;51.000;-3.112;2023-11-19T14:54:33;17.4;;;2.4;;
82805;SDS011;72558;51.000;-3.112;2023-11-19T14:57:34;18.7;;;2.8;;
82805;SDS011;72558;51.000;-3.112;2023-11-19T15:00:33;16.5;;;2.6;;
82805;SDS011;72558;51.000;-3.112;2023-11-19T15:03:34;16.9;;;2.6;;
82805;SDS011;72558;51.000;-3.112;2023-11-19T15:06:33;17.7;;;2.6;;
82805;SDS011;72558;51.000;-3.112;2023-11-19T15:09:34;17.7;;;2.5;;
82805;SDS011;72558;51.000;-3.112;2023-11-19T15:12:34;19.9;;;2.8;;
82805;SDS011;72558;51.000;-3.112;2023-11-19T15:15:34;22.0;;;3.0;;
82805;SDS011;72558;51.000;-3.112;2023-11-19T15:18:34;18.3;;;2.3;;
82805;SDS011;72558;51.000;-3.112;2023-11-19T15:21:34;21.2;;;2.4;;
82805;SDS011;72558;51.000;-3.112;2023-11-19T15:24:34;17.0;;;2.5;;
82805;SDS011;72558;51.000;-3.112;2023-11-19T15:27:33;17.2;;;2.9;;
82805;SDS011;72558;51.000;-3.112;2023-11-19T15:30:34;17.5;;;2.7;;
82805;SDS011;72558;51.000;-3.112;2023-11-19T15:33:33;13.9;;;2.5;;
82805;SDS011;72558;51.000;-3.112;2023-11-19T15:36:34;14.4;;;2.0;;
82805;SDS011;72558;51.000;-3.112;2023-11-19T15:39:34;18.5;;;2.7;;
82805;SDS011;72558;51.000;-3.112;2023-11-19T15:42:33;18.8;;;2.9;;
82805;SDS011;72558;51.000;-3.112;2023-11-19T15:45:34;18.0;;;2.6;;
82805;SDS011;72558;51.000;-3.112;2023-11-19T15:48:33;20.6;;;3.2;;
82805;SDS011;72558;51.000;-3.112;2023-11-19T15:51:34;18.1;;;2.9;;
82805;SDS011;72558;51.000;-3.112;2023-11-19T15:54:34;18.2;;;2.6;;
82805;SDS011;72558;51.000;-3.112;2023-11-19T15:57:33;20.0;;;3.4;;
82805;SDS011;72558;51.000;-3.112;2023-11-19T16:00:34;18.2;;;3.2;;
82805;SDS011;72558;51.000;-3.112;2023-11-19T16:03:33;19.4;;;3.1;;
82805;SDS011;72558;51.000;-3.112;2023-11-19T16:06:34;23.7;;;3.0;;
82805;SDS011;72558;51.000;-3.112;2023-11-19T16:09:33;18.2;;;2.8;;
82805;SDS011;72558;51.000;-3.112;2023-11-19T16:12:34;20.0;;;2.8;;
82805;SDS011;72558;51.000;-3.112;2023-11-19T16:15:33;23.3;;;3.3;;
82805;SDS011;72558;51.000;-3.112;2023-11-19T16:18:34;22.5;;;3.9;;
82805;SDS011;72558;51.000;-3.112;2023-11-19T16:21:34;19.1;;;3.5;;
82805;SDS011;72558;51.000;-3.112;2023-11-19T16:24:34;21.2;;;3.2;;
82805;SDS011;72558;51.000;-3.112;2023-11-19T16:27:34;18.8;;;3.2;;
82805;SDS011;72558;51.000;-3.112;2023-11-19T16:30:34;19.4;;;3.4;;
82805;SDS011;72558;51.000;-3.112;2023-11-19T16:33:33;19.4;;;2.8;;
82805;SDS011;72558;51.000;-3.112;2023-11-19T16:36:34;17.7;;;3.2;;
82805;SDS011;72558;51.000;-3.112;2023-11-19T16:39:33;20.7;;;3.2;;
82805;SDS011;72558;51.000;-3.112;2023-11-19T16:42:34;20.8;;;3.5;;
82805;SDS011;72558;51.000;-3.112;2023-11-19T16:45:34;22.1;;;2.9;;
82805;SDS011;72558;51.000;-3.112;2023-11-19T16:48:33;21.8;;;3.7;;
82805;SDS011;72558;51.000;-3.112;2023-11-19T16:51:34;20.1;;;3.2;;
82805;SDS011;72558;51.000;-3.112;2023-11-19T16:54:34;22.8;;;3.2;;
82805;SDS011;72558;51.000;-3.112;2023-11-19T16:57:34;22.4;;;3.3;;
82805;SDS011;72558;51.000;-3.112;2023-11-19T17:00:33;21.3;;;3.1;;
82805;SDS011;72558;51.000;-3.112;2023-11-19T17:03:34;19.2;;;2.7;;
82805;SDS011;72558;51.000;-3.112;2023-11-19T17:06:34;23.1;;;3.4;;
82805;SDS011;72558;51.000;-3.112;2023-11-19T17:09:33;23.3;;;2.9;;
82805;SDS011;72558;51.000;-3.112;2023-11-19T17:12:34;23.6;;;2.9;;
82805;SDS011;72558;51.000;-3.112;2023-11-19T17:15:33;20.6;;;2.9;;
82805;SDS011;72558;51.000;-3.112;2023-11-19T17:18:34;20.2;;;2.9;;
82805;SDS011;72558;51.000;-3.112;2023-11-19T17:21:34;20.6;;;3.3;;
82805;SDS011;72558;51.000;-3.112;2023-11-19T17:24:34;18.5;;;3.0;;
82805;SDS011;72558;51.000;-3.112;2023-11-19T17:27:34;19.4;;;3.2;;
82805;SDS011;72558;51.000;-3.112;2023-11-19T17:30:34;20.1;;;2.9;;
82805;SDS011;72558;51.000;-3.112;2023-11-19T17:33:34;21.8;;;3.4;;
82805;SDS011;72558;51.000;-3.112;2023-11-19T17:36:33;21.0;;;3.2;;
82805;SDS011;72558;51.000;-3.112;2023-11-19T17:39:34;20.7;;;2.7;;
82805;SDS011;72558;51.000;-3.112;2023-11-19T17:42:33;23.7;;;3.6;;
82805;SDS011;72558;51.000;-3.112;2023-11-19T17:45:34;24.6;;;3.5;;
82805;SDS011;72558;51.000;-3.112;2023-11-19T17:48:34;24.0;;;3.4;;
82805;SDS011;72558;51.000;-3.112;2023-11-19T17:51:34;19.9;;;2.7;;
82805;SDS011;72558;51.000;-3.112;2023-11-19T17:54:33;21.1;;;2.7;;
82805;SDS011;72558;51.000;-3.112;2023-11-19T17:57:34;17.5;;;2.2;;
82805;SDS011;72558;51.000;-3.112;2023-11-19T18:00:33;15.5;;;2.3;;
82805;SDS011;72558;51.000;-3.112;2023-11-19T18:03:34;16.3;;;2.4;;